createdAt,value
2023-04-18T00:02:19.922Z,87.16
2023-04-18T00:05:23.132Z,87.38
2023-04-18T00:08:26.003Z,87.64
2023-04-18T00:11:30.095Z,87.76
2023-04-18T00:14:34.791Z,88.08
2023-04-18T00:17:40.138Z,88.59
2023-04-18T00:20:43.556Z,88.44
2023-04-18T00:23:46.254Z,88.22
2023-04-18T00:26:49.479Z,88.56
2023-04-18T00:29:52.162Z,88.64
2023-04-18T00:32:55.391Z,88.73
2023-04-18T00:35:58.181Z,89.02
2023-04-18T00:39:01.666Z,89.80
2023-04-18T00:42:04.342Z,90.38
2023-04-18T00:45:07.489Z,90.55
2023-04-18T00:48:10.678Z,90.95
2023-04-18T00:51:13.950Z,90.95
2023-04-18T00:54:18.694Z,91.63
2023-04-18T00:57:22.607Z,91.88
2023-04-18T01:00:26.634Z,91.93
2023-04-18T01:03:29.790Z,92.28
2023-04-18T01:06:32.879Z,92.41
2023-04-18T01:09:37.471Z,92.97
2023-04-18T01:12:40.828Z,92.51
2023-04-18T01:15:44.900Z,92.89
2023-04-18T01:18:47.381Z,92.99
2023-04-18T01:21:53.608Z,92.95
2023-04-18T01:24:56.102Z,92.90
2023-04-18T01:27:59.009Z,92.50
2023-04-18T01:31:03.407Z,92.75
2023-04-18T01:34:06.594Z,92.93
2023-04-18T01:37:09.166Z,92.60
2023-04-18T01:40:12.307Z,92.93
2023-04-18T01:43:15.152Z,92.85
2023-04-18T01:46:17.940Z,92.80
2023-04-18T01:49:22.324Z,92.96
2023-04-18T01:52:26.461Z,92.97
2023-04-18T01:55:28.890Z,92.22
2023-04-18T01:58:32.177Z,92.07
2023-04-18T02:01:34.708Z,91.59
2023-04-18T02:04:37.504Z,91.69
2023-04-18T02:07:41.179Z,91.35
2023-04-18T02:10:44.069Z,91.44
2023-04-18T02:13:46.843Z,91.03
2023-04-18T02:16:49.561Z,90.52
2023-04-18T02:19:53.177Z,90.84
2023-04-18T02:22:56.117Z,91.01
2023-04-18T02:25:58.579Z,91.06
2023-04-18T02:29:01.365Z,91.11
2023-04-18T02:32:05.446Z,90.95
2023-04-18T02:35:08.517Z,90.70
2023-04-18T02:38:11.362Z,90.47
2023-04-18T02:41:18.294Z,90.69
2023-04-18T02:44:20.833Z,90.00
2023-04-18T02:47:23.545Z,90.06
2023-04-18T02:50:27.032Z,89.65
2023-04-18T02:53:31.530Z,89.64
2023-04-18T02:56:39.799Z,90.03
2023-04-18T02:59:54.489Z,90.19
2023-04-18T03:03:17.588Z,89.56
2023-04-18T03:06:33.990Z,89.44
2023-04-18T03:09:38.110Z,89.18
2023-04-18T03:12:52.778Z,89.38
2023-04-18T03:15:56.452Z,89.09
2023-04-18T03:19:01.895Z,88.74
2023-04-18T03:22:06.157Z,88.35
2023-04-18T03:25:11.787Z,88.17
2023-04-18T03:28:21.080Z,88.05
2023-04-18T03:31:24.312Z,87.86
2023-04-18T03:34:27.111Z,87.82
2023-04-18T03:37:30.935Z,87.74
2023-04-18T03:40:35.393Z,87.07
2023-04-18T03:43:44.826Z,87.36
2023-04-18T03:46:54.152Z,87.22
2023-04-18T03:49:57.330Z,87.51
2023-04-18T03:53:01.705Z,87.03
2023-04-18T03:56:08.597Z,86.90
2023-04-18T03:59:26.839Z,87.13
2023-04-18T04:02:30.972Z,86.03
2023-04-18T04:05:33.674Z,84.98
2023-04-18T04:08:36.608Z,84.41
2023-04-18T04:11:39.800Z,84.17
2023-04-18T04:14:45.481Z,83.65
2023-04-18T04:17:48.447Z,82.86
2023-04-18T04:20:52.293Z,82.55
2023-04-18T04:24:15.607Z,82.42
2023-04-18T04:27:22.934Z,82.65
2023-04-18T04:30:26.282Z,82.57
2023-04-18T04:33:29.045Z,82.30
2023-04-18T04:36:35.752Z,81.82
2023-04-18T04:39:41.518Z,81.49
2023-04-18T04:43:03.390Z,81.68
2023-04-18T04:46:13.940Z,81.36
2023-04-18T04:49:18.835Z,81.24
2023-04-18T04:52:21.762Z,81.23
2023-04-18T04:55:24.782Z,80.85
2023-04-18T04:58:28.186Z,80.59
2023-04-18T05:01:33.505Z,80.04
2023-04-18T05:04:36.435Z,79.77
2023-04-18T05:07:39.286Z,79.43
2023-04-18T05:10:43.525Z,79.65
2023-04-18T05:13:46.057Z,78.61
2023-04-18T05:16:48.873Z,78.10
2023-04-18T05:19:51.960Z,77.12
2023-04-18T05:22:54.689Z,76.98
2023-04-18T05:25:57.330Z,76.68
2023-04-18T05:29:00.144Z,76.29
2023-04-18T05:32:03.512Z,76.39
2023-04-18T05:35:07.130Z,75.61
2023-04-18T05:38:09.695Z,75.27
2023-04-18T05:41:12.218Z,75.36
2023-04-18T05:44:16.206Z,74.78
2023-04-18T05:47:19.085Z,73.88
2023-04-18T05:50:23.327Z,72.65
2023-04-18T05:53:26.194Z,73.70
2023-04-18T05:56:29.354Z,74.48
2023-04-18T05:59:31.928Z,71.41
2023-04-18T06:02:34.584Z,71.44
2023-04-18T06:05:37.432Z,69.45
2023-04-18T06:08:40.377Z,65.11
2023-04-18T06:11:43.192Z,65.91
2023-04-18T06:14:46.184Z,63.83
2023-04-18T06:17:48.841Z,63.45
2023-04-18T06:20:51.849Z,66.99
2023-04-18T06:23:54.761Z,64.69
2023-04-18T06:26:57.626Z,68.20
2023-04-18T06:30:00.315Z,69.43
2023-04-18T06:33:03.226Z,69.33
2023-04-18T06:36:07.257Z,70.70
2023-04-18T06:39:09.942Z,70.78
2023-04-18T06:42:12.613Z,68.06
2023-04-18T06:45:20.197Z,65.58
2023-04-18T06:48:22.871Z,62.99
2023-04-18T06:51:25.283Z,59.89
2023-04-18T06:54:27.973Z,60.54
2023-04-18T06:57:30.430Z,62.15
2023-04-18T07:00:33.115Z,62.90
2023-04-18T07:03:35.700Z,62.84
2023-04-18T07:06:38.457Z,62.79
2023-04-18T07:09:41.029Z,62.60
2023-04-18T07:12:43.710Z,60.60
2023-04-18T07:15:46.126Z,62.00
2023-04-18T07:18:49.172Z,62.75
2023-04-18T07:21:51.628Z,60.05
2023-04-18T07:24:54.408Z,59.40
2023-04-18T07:27:56.814Z,59.04
2023-04-18T07:31:01.522Z,59.40
2023-04-18T07:34:04.781Z,58.22
2023-04-18T07:37:07.373Z,58.43
2023-04-18T07:40:10.571Z,60.08
2023-04-18T07:43:13.201Z,57.76
2023-04-18T07:46:15.766Z,59.39
2023-04-18T07:49:18.240Z,60.83
2023-04-18T07:52:21.065Z,60.82
2023-04-18T07:55:24.118Z,59.46
2023-04-18T07:58:26.693Z,59.75
2023-04-18T08:01:29.407Z,58.45
2023-04-18T08:04:32.336Z,57.65
2023-04-18T08:07:34.986Z,59.30
2023-04-18T08:10:38.135Z,59.09
2023-04-18T08:13:40.630Z,59.64
2023-04-18T08:16:43.308Z,58.22
2023-04-18T08:19:46.155Z,55.81
2023-04-18T08:23:05.105Z,54.84
2023-04-18T08:26:09.194Z,55.60
2023-04-18T08:29:13.165Z,55.79
2023-04-18T08:32:15.840Z,55.86
2023-04-18T08:35:18.540Z,55.56
2023-04-18T08:38:21.033Z,56.58
2023-04-18T08:41:24.794Z,57.26
2023-04-18T08:44:29.223Z,54.88
2023-04-18T08:47:31.888Z,54.48
2023-04-18T08:50:34.595Z,53.29
2023-04-18T08:53:39.264Z,56.03
2023-04-18T08:56:42.321Z,54.05
2023-04-18T08:59:47.646Z,54.61
2023-04-18T09:02:56.788Z,54.96
2023-04-18T09:06:18.802Z,55.15
2023-04-18T09:09:27.477Z,55.92
2023-04-18T09:12:30.199Z,57.03
2023-04-18T09:15:32.909Z,59.78
2023-04-18T09:18:35.664Z,59.25
2023-04-18T09:21:44.613Z,57.12
2023-04-18T09:24:54.292Z,56.67
2023-04-18T09:28:02.336Z,56.52
2023-04-18T09:31:13.359Z,55.94
2023-04-18T09:34:25.226Z,53.28
2023-04-18T09:37:29.245Z,50.76
2023-04-18T09:40:32.883Z,46.60
2023-04-18T09:43:35.416Z,39.71
2023-04-18T09:46:38.183Z,42.34
2023-04-18T09:49:41.103Z,39.68
2023-04-18T09:52:45.344Z,39.46
2023-04-18T09:55:54.865Z,39.26
2023-04-18T09:59:09.399Z,41.49
2023-04-18T10:02:18.662Z,38.84
2023-04-18T10:05:24.969Z,37.64
2023-04-18T10:08:28.109Z,38.92
2023-04-18T10:11:32.345Z,39.39
2023-04-18T10:14:37.360Z,38.99
2023-04-18T10:18:04.444Z,39.80
2023-04-18T10:21:09.229Z,40.62
2023-04-18T10:24:50.145Z,44.13
2023-04-18T10:27:57.535Z,41.75
2023-04-18T10:31:05.113Z,45.26
2023-04-18T10:34:08.017Z,45.68
2023-04-18T10:37:12.994Z,46.03
2023-04-18T10:40:15.759Z,44.76
2023-04-18T10:43:18.349Z,45.33
2023-04-18T10:46:31.656Z,44.22
2023-04-18T11:06:31.476Z,44.73
2023-04-18T11:09:34.569Z,41.57
2023-04-18T11:12:39.311Z,39.92
2023-04-18T11:15:41.770Z,38.41
2023-04-18T11:18:44.623Z,39.92
2023-04-18T11:21:47.557Z,41.04
2023-04-18T11:24:50.211Z,36.23
2023-04-18T11:27:55.262Z,34.10
2023-04-18T11:31:00.009Z,35.28
2023-04-18T11:34:02.621Z,34.12
2023-04-18T11:37:08.526Z,33.90
2023-04-18T11:40:12.107Z,33.52
2023-04-18T11:43:23.545Z,36.02
2023-04-18T11:46:38.021Z,37.72
2023-04-18T11:49:41.023Z,38.49
2023-04-18T11:52:43.605Z,38.49
2023-04-18T11:55:55.802Z,39.60
2023-04-18T11:58:58.655Z,37.99
2023-04-18T12:02:15.443Z,38.42
2023-04-18T12:05:38.978Z,39.37
2023-04-18T12:08:43.290Z,39.72
2023-04-18T12:12:06.382Z,41.16
2023-04-18T12:15:14.259Z,36.79
2023-04-18T12:18:19.339Z,36.39
2023-04-18T12:21:22.243Z,36.46
2023-04-18T12:24:25.242Z,40.18
2023-04-18T12:27:47.150Z,37.77
2023-04-18T12:30:49.850Z,38.51
2023-04-18T12:33:52.929Z,38.33
2023-04-18T12:36:55.444Z,38.22
2023-04-18T12:39:58.177Z,38.36
2023-04-18T12:43:02.966Z,37.14
2023-04-18T12:46:06.308Z,37.00
2023-04-18T12:49:08.834Z,36.86
2023-04-18T12:52:11.533Z,37.23
2023-04-18T12:55:14.415Z,36.47
2023-04-18T12:58:18.823Z,37.24
2023-04-18T13:01:21.469Z,40.13
2023-04-18T13:04:24.876Z,36.50
2023-04-18T13:07:27.475Z,34.39
2023-04-18T13:10:30.331Z,34.05
2023-04-18T13:13:34.450Z,36.01
2023-04-18T13:16:38.886Z,32.71
2023-04-18T13:19:41.665Z,33.50
2023-04-18T13:22:45.612Z,34.80
2023-04-18T13:25:48.023Z,34.59
2023-04-18T13:28:50.638Z,36.91
2023-04-18T13:31:53.340Z,33.97
2023-04-18T13:34:56.564Z,32.27
2023-04-18T13:38:01.766Z,34.41
2023-04-18T13:41:12.376Z,35.58
2023-04-18T13:44:15.985Z,31.86
2023-04-18T13:47:18.869Z,33.16
2023-04-18T13:50:21.578Z,31.43
2023-04-18T13:53:24.236Z,31.38
2023-04-18T13:56:28.136Z,30.26
2023-04-18T13:59:31.943Z,29.94
2023-04-18T14:02:34.516Z,30.50
2023-04-18T14:05:37.506Z,29.71
2023-04-18T14:08:40.959Z,29.81
2023-04-18T14:11:58.994Z,30.17
2023-04-18T14:18:32.489Z,31.99
2023-04-18T14:21:35.102Z,34.30
2023-04-18T14:24:37.789Z,33.92
2023-04-18T14:27:40.389Z,33.77
2023-04-18T14:30:44.375Z,34.58
2023-04-18T14:33:46.844Z,35.64
2023-04-18T14:36:49.532Z,35.43
2023-04-18T14:39:52.160Z,36.10
2023-04-18T14:42:54.907Z,35.80
2023-04-18T14:45:59.005Z,39.56
2023-04-18T14:49:02.446Z,37.56
2023-04-18T14:52:05.467Z,38.97
2023-04-18T14:55:09.213Z,39.04
2023-04-18T14:58:11.630Z,39.07
2023-04-18T15:01:15.247Z,38.04
2023-04-18T15:04:18.112Z,39.06
2023-04-18T15:07:21.025Z,37.12
2023-04-18T15:10:23.522Z,38.15
2023-04-18T15:13:26.331Z,38.83
2023-04-18T15:16:28.763Z,38.79
2023-04-18T15:19:32.065Z,39.30
2023-04-18T15:22:35.810Z,39.70
2023-04-18T15:25:38.586Z,39.31
2023-04-18T15:28:41.249Z,39.31
2023-04-18T15:31:44.201Z,39.94
2023-04-18T15:34:46.607Z,40.02
2023-04-18T15:37:49.369Z,40.08
2023-04-18T15:40:51.969Z,40.28
2023-04-18T15:43:54.569Z,40.69
2023-04-18T15:46:57.656Z,40.34
2023-04-18T15:50:00.746Z,40.70
2023-04-18T15:53:03.323Z,40.61
2023-04-18T15:56:06.596Z,39.80
2023-04-18T15:59:11.040Z,39.42
2023-04-18T16:02:14.386Z,40.22
2023-04-18T16:05:17.465Z,42.00
2023-04-18T16:08:20.150Z,42.73
2023-04-18T16:11:26.073Z,42.64
2023-04-18T16:14:28.737Z,42.29
2023-04-18T16:17:31.591Z,42.75
2023-04-18T16:20:34.484Z,42.94
2023-04-18T16:23:37.048Z,43.95
2023-04-18T16:26:39.588Z,41.98
2023-04-18T16:29:44.126Z,42.31
2023-04-18T16:32:47.283Z,43.77
2023-04-18T16:35:49.902Z,45.02
2023-04-18T16:38:52.586Z,45.53
2023-04-18T16:41:55.298Z,45.87
2023-04-18T16:44:58.208Z,44.42
2023-04-18T16:48:00.950Z,44.66
2023-04-18T16:51:03.685Z,44.79
2023-04-18T16:54:06.475Z,45.86
2023-04-18T16:57:09.054Z,46.51
2023-04-18T17:00:13.592Z,46.02
2023-04-18T17:03:16.360Z,47.03
2023-04-18T17:06:19.546Z,45.67
2023-04-18T17:09:22.710Z,45.71
2023-04-18T17:12:25.672Z,46.23
2023-04-18T17:15:28.804Z,46.38
2023-04-18T17:18:32.178Z,47.17
2023-04-18T17:21:36.139Z,45.28
2023-04-18T17:24:38.903Z,44.50
2023-04-18T17:27:41.560Z,45.43
2023-04-18T17:30:44.443Z,45.75
2023-04-18T17:33:51.146Z,45.63
2023-04-18T17:36:54.014Z,45.69
2023-04-18T17:39:58.500Z,45.69
2023-04-18T17:43:01.286Z,46.09
2023-04-18T17:46:04.414Z,46.71
2023-04-18T17:49:07.263Z,46.75
2023-04-18T17:52:10.674Z,47.28
2023-04-18T17:55:13.535Z,46.89
2023-04-18T17:58:17.029Z,47.65
2023-04-18T18:01:21.123Z,47.68
2023-04-18T18:04:26.369Z,48.47
2023-04-18T18:07:31.151Z,48.79
2023-04-18T18:10:34.563Z,49.41
2023-04-18T18:13:38.959Z,49.38
2023-04-18T18:16:41.925Z,49.61
2023-04-18T18:19:44.771Z,49.66
2023-04-18T18:22:48.073Z,50.07
2023-04-18T18:26:11.972Z,49.82
2023-04-18T18:29:15.339Z,50.25
2023-04-18T18:32:18.172Z,49.83
2023-04-18T18:35:21.507Z,50.51
2023-04-18T18:38:24.126Z,50.28
2023-04-18T18:41:26.993Z,50.76
2023-04-18T18:44:30.501Z,51.09
2023-04-18T18:47:34.443Z,51.15
2023-04-18T18:50:37.775Z,51.38
2023-04-18T18:53:41.047Z,51.71
2023-04-18T18:56:45.287Z,51.33
2023-04-18T18:59:51.028Z,51.88
2023-04-18T19:02:55.134Z,51.96
2023-04-18T19:05:58.158Z,51.81
2023-04-18T19:09:01.186Z,51.84
2023-04-18T19:12:05.218Z,51.28
2023-04-18T19:15:08.704Z,51.54
2023-04-18T19:18:12.641Z,51.27
2023-04-18T19:21:15.940Z,51.39
2023-04-18T19:24:19.298Z,51.28
2023-04-18T19:27:22.212Z,51.80
2023-04-18T19:30:25.385Z,52.56
2023-04-18T19:33:29.309Z,52.72
2023-04-18T19:36:32.733Z,52.62
2023-04-18T19:39:36.389Z,52.93
2023-04-18T19:42:39.115Z,52.97
2023-04-18T19:45:42.487Z,53.34
2023-04-18T19:48:45.526Z,53.26
2023-04-18T19:51:49.084Z,53.20
2023-04-18T19:54:53.067Z,53.31
2023-04-18T19:57:56.777Z,53.52
2023-04-18T20:00:59.889Z,53.74
2023-04-18T20:04:02.791Z,53.46
2023-04-18T20:07:05.994Z,53.46
2023-04-18T20:10:09.546Z,53.50
2023-04-18T20:13:12.737Z,53.70
2023-04-18T20:16:16.900Z,54.50
2023-04-18T20:19:19.869Z,54.09
2023-04-18T20:22:27.240Z,54.82
2023-04-18T20:25:30.069Z,54.63
2023-04-18T20:28:32.716Z,54.63
2023-04-18T20:31:37.805Z,54.40
2023-04-18T20:34:40.661Z,54.16
2023-04-18T20:37:44.950Z,53.56
2023-04-18T20:40:48.947Z,53.64
2023-04-18T20:43:53.828Z,53.65
2023-04-18T20:46:57.275Z,54.03
2023-04-18T20:50:00.652Z,54.08
2023-04-18T20:53:04.058Z,53.99
2023-04-18T20:56:06.927Z,53.63
2023-04-18T20:59:09.451Z,53.98
2023-04-18T21:02:12.600Z,53.87
2023-04-18T21:05:15.240Z,53.86
2023-04-18T21:08:17.991Z,54.09
2023-04-18T21:11:21.042Z,54.16
2023-04-18T21:14:24.114Z,54.03
2023-04-18T21:17:27.189Z,54.71
2023-04-18T21:20:29.863Z,54.71
2023-04-18T21:23:32.355Z,55.07
2023-04-18T21:26:35.254Z,54.87
2023-04-18T21:29:37.949Z,54.91
2023-04-18T21:32:40.756Z,55.43
2023-04-18T21:35:43.198Z,55.64
2023-04-18T21:38:46.371Z,56.01
2023-04-18T21:41:48.853Z,56.21
2023-04-18T21:44:51.697Z,55.80
2023-04-18T21:47:54.457Z,56.18
2023-04-18T21:50:57.476Z,56.24
2023-04-18T21:54:00.448Z,56.17
2023-04-18T21:57:03.210Z,56.38
2023-04-18T22:00:07.828Z,56.65
2023-04-18T22:03:12.962Z,56.46
2023-04-18T22:06:16.208Z,56.81
2023-04-18T22:09:19.544Z,56.97
2023-04-18T22:12:22.187Z,57.32
2023-04-18T22:15:24.806Z,57.08
2023-04-18T22:18:30.402Z,57.62
2023-04-18T22:21:32.955Z,57.82
2023-04-18T22:24:35.929Z,58.19
2023-04-18T22:27:39.396Z,58.75
2023-04-18T22:30:41.804Z,58.90
2023-04-18T22:33:44.804Z,59.39
2023-04-18T22:36:47.600Z,59.56
2023-04-18T22:39:50.429Z,59.88
2023-04-18T22:42:53.076Z,60.43
2023-04-18T22:45:56.077Z,60.62
2023-04-18T22:48:58.789Z,61.08
2023-04-18T22:52:02.096Z,61.27
2023-04-18T22:55:05.021Z,61.85
2023-04-18T22:58:08.445Z,62.08
2023-04-18T23:01:10.917Z,62.28
2023-04-18T23:04:14.065Z,62.14
2023-04-18T23:07:17.075Z,61.99
2023-04-18T23:10:20.171Z,62.46
2023-04-18T23:13:22.979Z,63.07
2023-04-18T23:16:25.767Z,62.93
2023-04-18T23:19:28.604Z,63.53
2023-04-18T23:22:31.316Z,63.73
2023-04-18T23:25:34.138Z,63.97
2023-04-18T23:28:37.792Z,65.02
2023-04-18T23:31:40.944Z,65.54
2023-04-18T23:34:45.828Z,65.70
2023-04-18T23:37:48.252Z,65.99
2023-04-18T23:40:51.298Z,66.50
2023-04-18T23:43:54.125Z,66.56
2023-04-18T23:46:56.770Z,67.06
2023-04-18T23:49:59.672Z,67.45
2023-04-18T23:53:03.188Z,68.00
2023-04-18T23:56:05.978Z,67.86
2023-04-18T23:59:08.808Z,67.14
